Time;durP1;ratioP1;P1;durP2;ratioP2;P2;SDS_P1;SDS_P2;PMS_P1;PMS_P2;Temp;Humidity;BMP_temperature;BMP_pressure;BME280_temperature;BME280_humidity;BME280_pressure;Samples;Min_cycle;Max_cycle;Signal;HPM_P1;HPM_P2
2022/07/24 00:00:22;;;;;;;6.30;5.70;;;;;;;;;;5060521;28;20178;-76
2022/07/24 00:02:48;;;;;;;6.97;6.37;;;;;;;;;;5061336;28;20206;-76
2022/07/24 00:05:14;;;;;;;6.20;5.60;;;;;;;;;;5058633;28;20180;-76
2022/07/24 00:07:40;;;;;;;6.00;5.40;;;;;;;;;;5064336;28;20182;-76
2022/07/24 00:10:07;;;;;;;6.73;6.07;;;;;;;;;;5064143;28;20212;-76
2022/07/24 00:12:33;;;;;;;5.77;5.27;;;;;;;;;;5065342;28;20209;-76
2022/07/24 00:14:59;;;;;;;6.57;5.70;;;;;;;;;;5068593;28;20177;-76
2022/07/24 00:17:26;;;;;;;6.00;5.50;;;;;;;;;;5054141;28;20181;-75
2022/07/24 00:19:52;;;;;;;6.73;6.03;;;;;;;;;;5076445;28;20186;-76
2022/07/24 00:22:18;;;;;;;6.73;6.03;;;;;;;;;;5064784;28;20348;-76
2022/07/24 00:24:44;;;;;;;6.30;5.70;;;;;;;;;;5066112;28;20185;-76
2022/07/24 00:27:11;;;;;;;6.53;5.93;;;;;;;;;;5062895;28;20181;-76
2022/07/24 00:29:37;;;;;;;6.00;5.40;;;;;;;;;;5069387;28;20287;-76
2022/07/24 00:32:03;;;;;;;6.70;6.00;;;;;;;;;;5066543;28;20243;-76
2022/07/24 00:34:30;;;;;;;6.43;5.70;;;;;;;;;;5069065;28;20181;-75
2022/07/24 00:36:56;;;;;;;6.03;5.43;;;;;;;;;;5063285;28;20188;-74
2022/07/24 00:39:22;;;;;;;9.73;6.23;;;;;;;;;;5058895;28;20182;-75
2022/07/24 00:41:48;;;;;;;6.57;5.97;;;;;;;;;;5060277;28;20177;-74
2022/07/24 00:44:16;;;;;;;6.80;6.10;;;;;;;;;;5068900;28;20188;-75
2022/07/24 00:46:44;;;;;;;5.90;5.40;;;;;;;;;;5066770;28;20216;-75
2022/07/24 00:49:12;;;;;;;6.60;5.77;;;;;;;;;;5056012;28;20257;-75
2022/07/24 00:51:40;;;;;;;6.53;5.87;;;;;;;;;;5060322;28;20544;-75
2022/07/24 00:54:07;;;;;;;6.00;5.43;;;;;;;;;;5080626;28;20181;-75
2022/07/24 00:56:33;;;;;;;8.80;5.87;;;;;;;;;;5065367;28;20226;-74
2022/07/24 00:59:03;;;;;;;6.37;5.77;;;;;;;;;;5064095;28;20278;-75
2022/07/24 01:01:30;;;;;;;6.67;6.07;;;;;;;;;;5052065;28;20184;-74
2022/07/24 01:03:57;;;;;;;7.63;6.40;;;;;;;;;;5058492;28;20209;-75
2022/07/24 01:06:24;;;;;;;6.63;6.03;;;;;;;;;;5066312;28;20177;-75
2022/07/24 01:08:50;;;;;;;8.47;6.57;;;;;;;;;;5062826;28;21170;-74
2022/07/24 01:11:17;;;;;;;6.63;6.03;;;;;;;;;;5066431;28;20182;-75
2022/07/24 01:13:43;;;;;;;6.80;6.10;;;;;;;;;;5060964;28;20287;-75
2022/07/24 01:16:10;;;;;;;6.53;5.50;;;;;;;;;;5072850;28;20207;-75
2022/07/24 01:18:36;;;;;;;6.87;6.27;;;;;;;;;;5067920;28;20185;-74
2022/07/24 01:21:03;;;;;;;7.90;6.37;;;;;;;;;;5071757;28;20195;-74
2022/07/24 01:23:30;;;;;;;7.10;6.40;;;;;;;;;;5074634;28;20206;-75
2022/07/24 01:25:56;;;;;;;7.00;6.30;;;;;;;;;;5073222;28;20269;-75
2022/07/24 01:28:22;;;;;;;7.13;6.43;;;;;;;;;;5063108;28;20602;-75
2022/07/24 01:30:48;;;;;;;7.13;6.53;;;;;;;;;;5056963;28;20241;-76
2022/07/24 01:33:15;;;;;;;7.53;6.83;;;;;;;;;;5065653;28;20209;-76
2022/07/24 01:35:44;;;;;;;7.37;6.67;;;;;;;;;;5059780;28;20174;-76
2022/07/24 01:38:12;;;;;;;7.43;6.70;;;;;;;;;;5062434;28;20182;-76
2022/07/24 01:40:39;;;;;;;6.90;6.20;;;;;;;;;;5061084;28;20188;-75
2022/07/24 01:43:06;;;;;;;7.40;6.70;;;;;;;;;;5055963;28;20212;-76
2022/07/24 01:45:32;;;;;;;7.60;6.80;;;;;;;;;;5064756;28;20186;-76
2022/07/24 01:47:59;;;;;;;7.87;7.07;;;;;;;;;;5069275;28;20187;-76
2022/07/24 01:50:25;;;;;;;7.80;7.10;;;;;;;;;;5077539;28;20199;-75
2022/07/24 01:52:53;;;;;;;7.40;6.70;;;;;;;;;;5070612;28;20205;-75
2022/07/24 01:55:19;;;;;;;8.70;6.97;;;;;;;;;;5063221;28;20183;-76
2022/07/24 01:57:45;;;;;;;8.40;7.60;;;;;;;;;;5070663;28;20193;-76
2022/07/24 02:00:12;;;;;;;8.10;7.10;;;;;;;;;;5067205;28;20189;-76
2022/07/24 02:02:42;;;;;;;7.80;7.10;;;;;;;;;;5067908;28;20303;-75
2022/07/24 02:05:09;;;;;;;8.60;7.80;;;;;;;;;;5066244;28;20180;-75
2022/07/24 02:07:35;;;;;;;8.10;7.33;;;;;;;;;;5068297;28;20177;-76
2022/07/24 02:10:02;;;;;;;8.10;7.07;;;;;;;;;;5060366;28;20727;-76
2022/07/24 02:12:28;;;;;;;7.93;7.13;;;;;;;;;;5063420;28;20621;-76
2022/07/24 02:14:57;;;;;;;7.90;7.20;;;;;;;;;;5060775;28;20215;-75
2022/07/24 02:17:24;;;;;;;7.87;7.17;;;;;;;;;;5064244;28;20243;-76
2022/07/24 02:19:50;;;;;;;8.20;7.40;;;;;;;;;;5064848;28;20228;-75
2022/07/24 02:22:17;;;;;;;8.53;7.63;;;;;;;;;;5063633;28;20212;-76
2022/07/24 02:24:43;;;;;;;8.50;7.70;;;;;;;;;;5073966;28;20177;-76
2022/07/24 02:27:09;;;;;;;8.03;7.20;;;;;;;;;;5064632;28;20188;-76
2022/07/24 02:29:35;;;;;;;8.23;7.40;;;;;;;;;;5069056;28;20185;-75
2022/07/24 02:32:01;;;;;;;7.73;7.00;;;;;;;;;;5070395;28;20231;-76
2022/07/24 02:34:28;;;;;;;7.57;6.87;;;;;;;;;;5068705;28;20181;-76
2022/07/24 02:36:54;;;;;;;11.37;6.90;;;;;;;;;;5061523;28;20715;-76
2022/07/24 02:39:20;;;;;;;7.70;7.00;;;;;;;;;;5066848;28;20212;-76
2022/07/24 02:41:46;;;;;;;8.70;6.93;;;;;;;;;;5064340;28;20234;-76
2022/07/24 02:44:12;;;;;;;7.10;6.40;;;;;;;;;;5065882;28;20597;-76
2022/07/24 02:46:39;;;;;;;6.80;6.03;;;;;;;;;;5063603;28;20178;-76
2022/07/24 02:49:05;;;;;;;10.30;6.50;;;;;;;;;;5066743;28;20177;-75
2022/07/24 02:51:31;;;;;;;9.77;6.50;;;;;;;;;;5064497;28;20200;-75
2022/07/24 02:53:57;;;;;;;8.50;7.10;;;;;;;;;;5066508;28;20225;-75
2022/07/24 02:56:23;;;;;;;7.00;6.20;;;;;;;;;;5064873;28;20547;-76
2022/07/24 02:58:49;;;;;;;7.10;6.40;;;;;;;;;;5067339;28;20200;-76
2022/07/24 03:01:15;;;;;;;6.93;6.23;;;;;;;;;;5066129;28;20189;-75
2022/07/24 03:03:42;;;;;;;7.53;6.80;;;;;;;;;;5065192;28;20201;-76
2022/07/24 03:06:08;;;;;;;7.73;6.93;;;;;;;;;;5065448;28;20279;-76
2022/07/24 03:08:34;;;;;;;8.07;7.27;;;;;;;;;;5066311;28;20657;-76
2022/07/24 03:11:00;;;;;;;7.93;7.13;;;;;;;;;;5064715;28;20196;-76
2022/07/24 03:13:26;;;;;;;7.73;7.03;;;;;;;;;;5059921;28;20780;-76
2022/07/24 03:15:52;;;;;;;8.00;7.30;;;;;;;;;;5066393;28;20173;-76
2022/07/24 03:18:18;;;;;;;8.70;7.13;;;;;;;;;;5065882;28;20185;-76
2022/07/24 03:20:44;;;;;;;7.60;6.90;;;;;;;;;;5061730;28;20181;-76
2022/07/24 03:23:11;;;;;;;7.63;6.93;;;;;;;;;;5068686;28;20233;-76
2022/07/24 03:25:37;;;;;;;7.80;7.10;;;;;;;;;;5057719;28;20287;-76
2022/07/24 03:28:03;;;;;;;8.23;6.53;;;;;;;;;;5059900;28;20705;-76
2022/07/24 03:30:29;;;;;;;7.10;6.43;;;;;;;;;;5057496;28;20196;-75
2022/07/24 03:32:56;;;;;;;7.50;6.80;;;;;;;;;;5062237;28;20243;-76
2022/07/24 03:35:22;;;;;;;7.90;7.10;;;;;;;;;;5068515;28;20227;-76
2022/07/24 03:37:48;;;;;;;7.97;7.27;;;;;;;;;;5071337;28;20177;-76
2022/07/24 03:40:14;;;;;;;7.63;6.93;;;;;;;;;;5064089;28;20186;-76
2022/07/24 03:42:41;;;;;;;8.13;7.43;;;;;;;;;;5064263;28;20208;-76
2022/07/24 03:45:07;;;;;;;7.10;6.50;;;;;;;;;;5065684;28;20682;-75
2022/07/24 03:47:33;;;;;;;7.87;7.07;;;;;;;;;;5063850;28;20684;-76
2022/07/24 03:49:59;;;;;;;7.93;6.83;;;;;;;;;;5059722;28;20200;-76
2022/07/24 03:52:26;;;;;;;7.23;6.57;;;;;;;;;;5071859;28;20832;-76
2022/07/24 03:54:52;;;;;;;7.63;6.93;;;;;;;;;;5063712;28;20181;-76
2022/07/24 03:57:18;;;;;;;8.90;8.00;;;;;;;;;;5064326;28;20185;-76
2022/07/24 03:59:45;;;;;;;8.20;7.10;;;;;;;;;;5066588;28;20180;-76
2022/07/24 04:02:11;;;;;;;9.67;7.40;;;;;;;;;;5065781;28;20209;-76
2022/07/24 04:04:37;;;;;;;9.50;7.27;;;;;;;;;;5070307;28;20189;-75
2022/07/24 04:07:03;;;;;;;8.43;7.63;;;;;;;;;;5067249;28;20188;-75
2022/07/24 04:09:30;;;;;;;8.17;7.20;;;;;;;;;;5066824;28;20177;-75
2022/07/24 04:11:56;;;;;;;8.50;7.70;;;;;;;;;;5067480;28;20690;-76
2022/07/24 04:14:22;;;;;;;7.60;6.63;;;;;;;;;;5071901;28;20643;-76
2022/07/24 04:16:49;;;;;;;7.73;6.60;;;;;;;;;;5064809;28;20224;-76
2022/07/24 04:19:15;;;;;;;7.00;6.33;;;;;;;;;;5067309;28;20193;-76
2022/07/24 04:21:41;;;;;;;7.00;6.30;;;;;;;;;;5066015;28;20217;-76
2022/07/24 04:24:07;;;;;;;6.57;6.00;;;;;;;;;;5073358;28;20635;-76
2022/07/24 04:26:33;;;;;;;14.97;6.90;;;;;;;;;;5070466;28;20209;-76
2022/07/24 04:28:59;;;;;;;7.80;7.00;;;;;;;;;;5064571;28;21454;-76
2022/07/24 04:31:26;;;;;;;7.57;6.80;;;;;;;;;;5067293;28;20181;-76
2022/07/24 04:33:52;;;;;;;8.00;7.27;;;;;;;;;;5064802;28;20212;-76
2022/07/24 04:36:18;;;;;;;9.43;8.50;;;;;;;;;;5067520;28;20176;-76
2022/07/24 04:38:44;;;;;;;9.00;8.10;;;;;;;;;;5061342;28;20791;-76
2022/07/24 04:41:10;;;;;;;9.43;8.53;;;;;;;;;;5064983;28;20188;-76
2022/07/24 04:43:36;;;;;;;9.40;8.50;;;;;;;;;;5069735;28;20246;-76
2022/07/24 04:46:02;;;;;;;8.70;7.77;;;;;;;;;;5066545;28;20226;-76
2022/07/24 04:48:29;;;;;;;8.87;7.97;;;;;;;;;;5067865;28;20188;-76
2022/07/24 04:50:55;;;;;;;9.10;8.30;;;;;;;;;;5062540;28;20189;-75
2022/07/24 04:53:23;;;;;;;9.47;8.60;;;;;;;;;;5061983;28;20237;-76
2022/07/24 04:55:49;;;;;;;9.23;8.33;;;;;;;;;;5068204;28;20547;-76
2022/07/24 04:58:15;;;;;;;8.67;7.87;;;;;;;;;;5063016;28;20181;-75
2022/07/24 05:00:41;;;;;;;9.47;8.47;;;;;;;;;;5063530;28;20169;-75
2022/07/24 05:03:07;;;;;;;9.70;8.20;;;;;;;;;;5055769;28;20204;-75
2022/07/24 05:05:33;;;;;;;8.10;7.30;;;;;;;;;;5064873;28;20192;-75
2022/07/24 05:07:59;;;;;;;8.40;7.60;;;;;;;;;;5067190;28;20193;-75
2022/07/24 05:10:26;;;;;;;8.30;7.50;;;;;;;;;;5066827;28;20638;-75
2022/07/24 05:12:52;;;;;;;8.17;7.47;;;;;;;;;;5060283;28;20217;-75
2022/07/24 05:15:18;;;;;;;8.60;7.70;;;;;;;;;;5062264;28;20189;-75
2022/07/24 05:17:44;;;;;;;9.57;7.47;;;;;;;;;;5072257;28;20177;-76
2022/07/24 05:20:10;;;;;;;8.03;7.33;;;;;;;;;;5063751;28;20178;-76
2022/07/24 05:22:36;;;;;;;7.60;6.90;;;;;;;;;;5063302;28;20201;-76
2022/07/24 05:25:03;;;;;;;7.33;6.63;;;;;;;;;;5060322;28;20654;-76
2022/07/24 05:27:29;;;;;;;7.60;6.80;;;;;;;;;;5065264;28;20185;-76
2022/07/24 05:29:55;;;;;;;7.80;7.00;;;;;;;;;;5065642;28;20181;-76
2022/07/24 05:32:21;;;;;;;7.53;6.83;;;;;;;;;;5063348;28;20218;-76
2022/07/24 05:34:47;;;;;;;7.60;7.00;;;;;;;;;;5064331;28;20182;-76
2022/07/24 05:37:13;;;;;;;8.17;7.27;;;;;;;;;;5060064;28;20635;-76
2022/07/24 05:39:40;;;;;;;7.13;6.53;;;;;;;;;;5065337;28;20566;-76
2022/07/24 05:42:06;;;;;;;7.50;6.77;;;;;;;;;;5066224;28;20518;-76
2022/07/24 05:44:32;;;;;;;7.43;6.83;;;;;;;;;;5056121;28;20192;-76
2022/07/24 05:46:59;;;;;;;7.53;6.83;;;;;;;;;;5056148;28;20182;-79
2022/07/24 05:49:25;;;;;;;8.37;7.53;;;;;;;;;;5067955;28;20212;-74
2022/07/24 05:51:51;;;;;;;8.70;7.23;;;;;;;;;;5054022;28;20285;-79
2022/07/24 05:54:17;;;;;;;8.10;7.30;;;;;;;;;;5068106;28;20620;-76
2022/07/24 05:56:43;;;;;;;8.20;6.90;;;;;;;;;;5057469;28;20791;-76
2022/07/24 05:59:10;;;;;;;7.73;7.07;;;;;;;;;;5061379;28;20209;-77
2022/07/24 06:01:36;;;;;;;7.80;7.10;;;;;;;;;;5061360;28;20189;-77
2022/07/24 06:04:02;;;;;;;12.50;7.63;;;;;;;;;;5062055;28;20201;-77
2022/07/24 06:06:28;;;;;;;9.57;7.60;;;;;;;;;;5064747;28;20241;-77
2022/07/24 06:08:55;;;;;;;8.07;7.27;;;;;;;;;;5062990;28;20189;-77
2022/07/24 06:11:22;;;;;;;7.90;6.70;;;;;;;;;;5061774;28;20205;-76
2022/07/24 06:13:49;;;;;;;7.43;6.83;;;;;;;;;;5073542;28;20729;-76
2022/07/24 06:16:15;;;;;;;7.17;6.47;;;;;;;;;;5065740;28;20575;-76
2022/07/24 06:18:41;;;;;;;6.83;6.23;;;;;;;;;;5062911;28;20268;-76
2022/07/24 06:21:08;;;;;;;7.13;6.27;;;;;;;;;;5063699;28;20307;-76
2022/07/24 06:23:34;;;;;;;6.70;6.10;;;;;;;;;;5066468;28;20205;-76
2022/07/24 06:26:00;;;;;;;7.57;6.77;;;;;;;;;;5060309;28;20188;-76
2022/07/24 06:28:26;;;;;;;7.30;6.50;;;;;;;;;;5060981;28;20691;-76
2022/07/24 06:30:52;;;;;;;6.60;6.00;;;;;;;;;;5056966;28;20182;-76
2022/07/24 06:33:19;;;;;;;7.00;6.40;;;;;;;;;;5064427;28;20205;-76
2022/07/24 06:35:45;;;;;;;6.90;6.30;;;;;;;;;;5073782;28;20527;-76
2022/07/24 06:38:11;;;;;;;7.63;6.50;;;;;;;;;;5060707;28;20178;-76
2022/07/24 06:40:38;;;;;;;7.80;6.97;;;;;;;;;;5065158;28;20185;-76
2022/07/24 06:43:05;;;;;;;6.63;6.03;;;;;;;;;;5072634;28;20258;-75
2022/07/24 06:45:32;;;;;;;6.80;6.20;;;;;;;;;;5062455;28;20186;-76
2022/07/24 06:48:00;;;;;;;7.73;6.63;;;;;;;;;;5067873;28;20189;-76
2022/07/24 06:50:26;;;;;;;8.83;6.90;;;;;;;;;;5058099;28;20286;-78
2022/07/24 06:52:53;;;;;;;10.07;6.73;;;;;;;;;;5065053;28;20698;-78
2022/07/24 06:55:19;;;;;;;7.50;6.80;;;;;;;;;;5059026;28;20181;-79
2022/07/24 06:57:45;;;;;;;6.77;6.27;;;;;;;;;;5068674;28;20752;-78
2022/07/24 07:00:12;;;;;;;6.03;5.43;;;;;;;;;;5067831;28;20239;-74
2022/07/24 07:02:38;;;;;;;7.67;6.70;;;;;;;;;;5071016;28;20204;-76
2022/07/24 07:05:05;;;;;;;7.97;6.20;;;;;;;;;;5063795;28;20182;-76
2022/07/24 07:07:32;;;;;;;8.57;6.27;;;;;;;;;;5054929;28;20702;-77
2022/07/24 07:09:58;;;;;;;6.93;6.23;;;;;;;;;;5056106;28;20177;-77
2022/07/24 07:12:24;;;;;;;6.70;6.10;;;;;;;;;;5066805;28;20236;-76
2022/07/24 07:14:51;;;;;;;7.30;6.10;;;;;;;;;;5062787;28;20677;-76
2022/07/24 07:17:17;;;;;;;7.97;6.77;;;;;;;;;;5062050;28;20218;-76
2022/07/24 07:19:43;;;;;;;7.23;6.43;;;;;;;;;;5059394;28;20216;-76
2022/07/24 07:22:10;;;;;;;6.67;6.00;;;;;;;;;;5058046;28;20201;-76
2022/07/24 07:24:36;;;;;;;6.80;6.20;;;;;;;;;;5063238;28;20559;-76
2022/07/24 07:27:03;;;;;;;7.77;6.23;;;;;;;;;;5063435;28;21191;-76
2022/07/24 07:29:29;;;;;;;7.50;6.67;;;;;;;;;;5058949;28;20185;-76
2022/07/24 07:31:55;;;;;;;7.23;6.63;;;;;;;;;;5053660;28;20188;-76
2022/07/24 07:34:21;;;;;;;7.10;6.20;;;;;;;;;;5063276;28;20177;-77
2022/07/24 07:36:48;;;;;;;7.57;6.80;;;;;;;;;;5067097;28;20173;-77
2022/07/24 07:39:14;;;;;;;6.80;6.03;;;;;;;;;;5064266;28;20177;-76
2022/07/24 07:41:40;;;;;;;6.40;5.80;;;;;;;;;;5060148;28;20307;-76
2022/07/24 07:44:06;;;;;;;7.37;6.67;;;;;;;;;;5063899;28;20282;-77
2022/07/24 07:46:33;;;;;;;7.63;6.80;;;;;;;;;;5061807;28;20189;-76
2022/07/24 07:48:59;;;;;;;7.00;6.30;;;;;;;;;;5063146;28;20182;-76
2022/07/24 07:51:25;;;;;;;7.47;6.67;;;;;;;;;;5065424;28;20692;-76
2022/07/24 07:53:51;;;;;;;8.20;7.00;;;;;;;;;;5068078;28;20220;-76
2022/07/24 07:56:17;;;;;;;6.83;6.17;;;;;;;;;;5070104;28;20162;-77
2022/07/24 07:58:43;;;;;;;6.77;6.17;;;;;;;;;;5071900;28;20184;-77
2022/07/24 08:01:10;;;;;;;7.13;6.50;;;;;;;;;;5062769;28;20227;-77
2022/07/24 08:03:36;;;;;;;7.17;6.47;;;;;;;;;;5060162;28;20201;-76
2022/07/24 08:06:03;;;;;;;7.13;6.23;;;;;;;;;;5062779;28;20174;-77
2022/07/24 08:08:30;;;;;;;7.17;6.40;;;;;;;;;;5065116;28;20208;-76
2022/07/24 08:10:56;;;;;;;6.70;6.10;;;;;;;;;;5063533;28;20193;-75
2022/07/24 08:13:22;;;;;;;7.50;6.23;;;;;;;;;;5068810;28;20364;-74
2022/07/24 08:15:48;;;;;;;7.33;6.63;;;;;;;;;;5067479;28;20182;-78
2022/07/24 08:18:15;;;;;;;7.00;6.30;;;;;;;;;;5060692;28;20236;-77
2022/07/24 08:20:43;;;;;;;7.27;6.57;;;;;;;;;;5064052;28;20199;-78
2022/07/24 08:23:10;;;;;;;6.53;5.67;;;;;;;;;;5058566;28;20617;-78
2022/07/24 08:25:36;;;;;;;7.63;6.57;;;;;;;;;;5064794;28;20188;-78
2022/07/24 08:28:03;;;;;;;8.17;6.67;;;;;;;;;;5064544;28;20196;-77
2022/07/24 08:30:29;;;;;;;7.07;6.50;;;;;;;;;;5068640;28;20185;-77
2022/07/24 08:32:55;;;;;;;7.80;6.90;;;;;;;;;;5066660;28;20205;-77
2022/07/24 08:35:23;;;;;;;7.73;6.63;;;;;;;;;;5068448;28;20231;-77
2022/07/24 08:37:50;;;;;;;9.90;7.40;;;;;;;;;;5069316;28;20592;-77
2022/07/24 08:40:16;;;;;;;7.53;6.70;;;;;;;;;;5066020;28;20184;-77
2022/07/24 08:42:42;;;;;;;6.63;6.03;;;;;;;;;;5059958;28;20201;-77
2022/07/24 08:45:09;;;;;;;7.67;6.47;;;;;;;;;;5069943;28;20177;-77
2022/07/24 08:47:37;;;;;;;7.23;6.63;;;;;;;;;;5074900;28;20264;-78
2022/07/24 08:50:04;;;;;;;7.07;6.33;;;;;;;;;;5069476;28;20302;-78
2022/07/24 08:52:30;;;;;;;6.13;5.53;;;;;;;;;;5072168;28;20552;-76
2022/07/24 08:54:56;;;;;;;6.90;6.30;;;;;;;;;;5070079;28;20193;-76
2022/07/24 08:57:23;;;;;;;7.60;6.70;;;;;;;;;;5073321;28;20180;-77
2022/07/24 08:59:49;;;;;;;7.27;6.57;;;;;;;;;;5071074;28;20178;-77
2022/07/24 09:02:15;;;;;;;7.50;6.80;;;;;;;;;;5064044;28;20201;-77
2022/07/24 09:04:43;;;;;;;7.10;6.33;;;;;;;;;;5062913;28;20301;-77
2022/07/24 09:07:14;;;;;;;7.67;6.00;;;;;;;;;;5059764;28;20214;-79
2022/07/24 09:09:41;;;;;;;7.00;5.80;;;;;;;;;;5063746;28;20273;-77
2022/07/24 09:12:09;;;;;;;6.97;6.27;;;;;;;;;;5066255;28;20583;-77
2022/07/24 09:14:38;;;;;;;6.73;6.10;;;;;;;;;;5071252;28;20192;-77
2022/07/24 09:17:08;;;;;;;7.83;7.10;;;;;;;;;;5066293;28;20191;-77
2022/07/24 09:19:53;;;;;;;7.83;7.03;;;;;;;;;;5060480;28;20242;-77
2022/07/24 09:22:26;;;;;;;7.10;6.40;;;;;;;;;;5061547;28;20288;-77
2022/07/24 09:25:18;;;;;;;7.47;6.37;;;;;;;;;;5063827;28;20189;-77
2022/07/24 09:27:49;;;;;;;7.30;6.60;;;;;;;;;;5067007;28;20204;-77
2022/07/24 09:30:24;;;;;;;7.73;6.90;;;;;;;;;;5068252;28;20269;-77
2022/07/24 09:32:54;;;;;;;6.83;6.23;;;;;;;;;;5070373;28;20212;-77
2022/07/24 09:35:29;;;;;;;8.00;6.30;;;;;;;;;;5068299;28;20207;-78
2022/07/24 09:37:56;;;;;;;8.17;6.90;;;;;;;;;;5053396;28;20190;-77
2022/07/24 09:40:28;;;;;;;7.87;6.73;;;;;;;;;;5066846;28;20191;-77
2022/07/24 09:42:56;;;;;;;7.80;6.83;;;;;;;;;;5072119;28;20256;-77
2022/07/24 09:45:23;;;;;;;7.47;6.80;;;;;;;;;;5067181;28;20290;-77
2022/07/24 09:47:52;;;;;;;7.77;6.80;;;;;;;;;;5062008;28;20203;-78
2022/07/24 09:50:19;;;;;;;8.57;7.00;;;;;;;;;;5066101;28;20188;-77
2022/07/24 09:52:45;;;;;;;8.50;7.50;;;;;;;;;;5054313;28;20224;-77
2022/07/24 09:55:22;;;;;;;6.97;6.27;;;;;;;;;;5073480;28;20725;-78
2022/07/24 09:57:48;;;;;;;7.97;7.20;;;;;;;;;;5076773;28;20264;-77
2022/07/24 10:00:15;;;;;;;6.97;6.37;;;;;;;;;;5061442;28;20182;-77
2022/07/24 10:02:43;;;;;;;6.83;6.23;;;;;;;;;;5067189;28;20226;-77
2022/07/24 10:05:10;;;;;;;7.40;6.20;;;;;;;;;;5054087;28;20188;-76
2022/07/24 10:07:37;;;;;;;7.87;6.70;;;;;;;;;;5070023;28;20285;-79
2022/07/24 10:10:03;;;;;;;7.73;7.03;;;;;;;;;;5071949;28;20231;-77
2022/07/24 10:12:30;;;;;;;8.10;6.90;;;;;;;;;;5070542;28;20690;-78
2022/07/24 10:14:58;;;;;;;7.30;6.60;;;;;;;;;;5070043;28;20198;-76
2022/07/24 10:17:34;;;;;;;8.13;6.70;;;;;;;;;;5070340;28;20184;-77
2022/07/24 10:20:03;;;;;;;7.50;6.83;;;;;;;;;;5068728;28;20187;-75
2022/07/24 10:22:32;;;;;;;8.10;7.30;;;;;;;;;;5086205;28;20208;-77
2022/07/24 10:25:04;;;;;;;8.03;7.23;;;;;;;;;;5062268;28;20178;-77
2022/07/24 10:27:37;;;;;;;8.33;7.53;;;;;;;;;;5066185;28;20246;-76
2022/07/24 10:30:05;;;;;;;8.07;7.17;;;;;;;;;;5061202;28;20624;-76
2022/07/24 10:32:32;;;;;;;8.40;7.60;;;;;;;;;;5065425;28;20227;-75
2022/07/24 10:35:09;;;;;;;7.97;7.27;;;;;;;;;;5059924;28;20227;-77
2022/07/24 10:37:38;;;;;;;8.40;7.53;;;;;;;;;;5063591;28;20190;-79
2022/07/24 10:40:37;;;;;;;7.73;7.03;;;;;;;;;;5059364;28;20232;-78
2022/07/24 10:43:09;;;;;;;8.00;7.30;;;;;;;;;;5062453;28;20589;-77
2022/07/24 10:45:43;;;;;;;7.90;7.20;;;;;;;;;;5067429;28;20181;-78
2022/07/24 10:48:25;;;;;;;7.57;6.90;;;;;;;;;;5064029;28;20172;-77
2022/07/24 10:51:00;;;;;;;8.97;8.00;;;;;;;;;;5065615;28;20949;-78
2022/07/24 10:53:46;;;;;;;7.83;7.13;;;;;;;;;;5064418;28;20219;-76
2022/07/24 10:56:18;;;;;;;10.03;9.07;;;;;;;;;;5059634;28;20564;-76
2022/07/24 10:58:51;;;;;;;8.80;8.00;;;;;;;;;;5067113;28;20184;-76
2022/07/24 11:01:53;;;;;;;8.60;7.90;;;;;;;;;;5056269;28;21806;-78
2022/07/24 11:04:23;;;;;;;8.10;7.30;;;;;;;;;;5041888;28;20276;-78
2022/07/24 11:07:08;;;;;;;9.50;8.70;;;;;;;;;;5057871;28;20243;-81
2022/07/24 11:09:53;;;;;;;8.13;7.50;;;;;;;;;;5057696;28;20189;-77
2022/07/24 11:12:27;;;;;;;8.30;7.60;;;;;;;;;;5057112;28;20694;-78
2022/07/24 11:15:53;;;;;;;7.80;7.10;;;;;;;;;;5069810;28;20185;-76
2022/07/24 11:17:45;;;;;;;8.43;7.73;;;;;;;;;;5062934;28;20186;-76
2022/07/24 11:20:12;;;;;;;7.77;7.07;;;;;;;;;;5066173;28;20296;-78
2022/07/24 11:22:47;;;;;;;8.73;7.93;;;;;;;;;;5058019;28;20212;-78
2022/07/24 11:25:15;;;;;;;7.70;7.00;;;;;;;;;;5068632;28;20187;-82
2022/07/24 11:27:42;;;;;;;8.40;7.60;;;;;;;;;;5070323;28;20690;-77
2022/07/24 11:30:10;;;;;;;8.10;7.40;;;;;;;;;;5058205;28;20178;-77
2022/07/24 11:32:37;;;;;;;7.67;6.90;;;;;;;;;;5076923;28;20225;-78
2022/07/24 11:35:06;;;;;;;7.00;6.50;;;;;;;;;;5067420;28;20255;-78
2022/07/24 11:37:32;;;;;;;6.93;6.30;;;;;;;;;;5063791;28;20210;-78
2022/07/24 11:39:59;;;;;;;7.07;6.37;;;;;;;;;;5059782;28;20345;-78
2022/07/24 11:42:25;;;;;;;6.60;6.00;;;;;;;;;;5068958;28;20669;-78
2022/07/24 11:44:51;;;;;;;6.57;6.07;;;;;;;;;;5061110;28;20743;-78
2022/07/24 11:47:19;;;;;;;6.47;5.97;;;;;;;;;;5063564;28;20618;-77
2022/07/24 11:49:45;;;;;;;7.33;6.60;;;;;;;;;;5066659;28;20231;-78
2022/07/24 11:52:22;;;;;;;7.07;6.47;;;;;;;;;;5062909;28;20209;-78
2022/07/24 11:54:50;;;;;;;6.73;6.13;;;;;;;;;;5073113;28;20188;-77
2022/07/24 11:57:21;;;;;;;7.13;6.47;;;;;;;;;;5064556;28;20183;-77
2022/07/24 11:59:48;;;;;;;6.50;5.93;;;;;;;;;;5057400;28;20212;-79
2022/07/24 12:02:15;;;;;;;6.67;6.00;;;;;;;;;;5042927;28;20215;-77
2022/07/24 12:04:42;;;;;;;6.23;5.63;;;;;;;;;;5067078;28;20184;-78
2022/07/24 12:07:09;;;;;;;6.37;5.77;;;;;;;;;;5066696;28;20256;-79
2022/07/24 12:09:52;;;;;;;6.67;5.90;;;;;;;;;;5069998;28;20581;-78
2022/07/24 12:12:38;;;;;;;6.07;5.57;;;;;;;;;;5067033;28;20226;-79
2022/07/24 12:15:05;;;;;;;6.07;5.57;;;;;;;;;;5065119;28;20619;-79
2022/07/24 12:17:32;;;;;;;5.53;5.03;;;;;;;;;;5061391;28;20197;-81
2022/07/24 12:19:59;;;;;;;5.80;5.20;;;;;;;;;;5068058;28;20286;-79
2022/07/24 12:22:27;;;;;;;5.83;5.20;;;;;;;;;;5064646;28;20224;-81
2022/07/24 12:24:54;;;;;;;5.80;5.33;;;;;;;;;;5066376;28;20179;-81
2022/07/24 12:27:33;;;;;;;5.73;5.23;;;;;;;;;;5070982;28;20265;-81
2022/07/24 12:29:59;;;;;;;5.50;5.10;;;;;;;;;;5069244;28;20178;-81
2022/07/24 12:32:26;;;;;;;5.57;5.07;;;;;;;;;;5074220;28;20217;-81
2022/07/24 12:34:52;;;;;;;5.50;5.10;;;;;;;;;;5069298;28;20270;-81
2022/07/24 12:37:20;;;;;;;5.33;4.83;;;;;;;;;;5078417;28;20665;-80
2022/07/24 12:39:53;;;;;;;5.50;5.10;;;;;;;;;;5073406;28;20182;-81
2022/07/24 12:42:29;;;;;;;4.97;4.53;;;;;;;;;;5069112;28;20259;-81
2022/07/24 12:45:05;;;;;;;5.83;5.30;;;;;;;;;;5067721;28;20720;-81
2022/07/24 12:47:31;;;;;;;5.03;4.63;;;;;;;;;;5065602;28;20206;-81
2022/07/24 12:49:58;;;;;;;5.23;4.77;;;;;;;;;;5061445;28;20921;-81
2022/07/24 12:52:25;;;;;;;5.50;4.93;;;;;;;;;;5064642;28;20211;-81
2022/07/24 12:54:52;;;;;;;5.67;5.17;;;;;;;;;;5059020;28;20180;-81
2022/07/24 12:57:21;;;;;;;4.93;4.53;;;;;;;;;;5069493;28;20183;-80
2022/07/24 12:59:48;;;;;;;4.57;3.87;;;;;;;;;;5070207;28;20287;-81
2022/07/24 13:02:24;;;;;;;4.93;4.45;;;;;;;;;;5070813;28;20335;-81
2022/07/24 13:04:51;;;;;;;4.90;4.45;;;;;;;;;;5066939;28;20192;-81
2022/07/24 13:07:19;;;;;;;5.20;4.80;;;;;;;;;;5070000;28;20238;-79
2022/07/24 13:09:46;;;;;;;4.35;4.05;;;;;;;;;;5070250;28;20786;-81
2022/07/24 13:12:13;;;;;;;5.05;4.65;;;;;;;;;;5068341;28;20215;-80
2022/07/24 13:14:39;;;;;;;4.85;4.45;;;;;;;;;;5064179;28;20235;-81
2022/07/24 13:17:09;;;;;;;4.95;4.55;;;;;;;;;;5068597;28;20202;-81
2022/07/24 13:19:35;;;;;;;4.80;4.40;;;;;;;;;;5070067;28;20234;-82
2022/07/24 13:22:01;;;;;;;4.80;4.35;;;;;;;;;;5065789;28;20335;-81
2022/07/24 13:24:29;;;;;;;4.80;4.40;;;;;;;;;;5063775;28;20194;-82
2022/07/24 13:26:55;;;;;;;4.57;4.18;;;;;;;;;;5071117;28;20242;-82
2022/07/24 13:29:24;;;;;;;4.82;4.53;;;;;;;;;;5068077;28;20669;-82
2022/07/24 13:31:50;;;;;;;5.00;4.50;;;;;;;;;;5067778;28;20205;-81
2022/07/24 13:34:16;;;;;;;4.43;4.05;;;;;;;;;;5068426;28;20210;-82
2022/07/24 13:36:43;;;;;;;5.95;4.82;;;;;;;;;;5070965;28;20202;-80
2022/07/24 13:39:09;;;;;;;4.60;4.20;;;;;;;;;;5079133;28;20680;-81
2022/07/24 13:41:35;;;;;;;5.10;4.70;;;;;;;;;;5075653;28;20515;-82
2022/07/24 13:44:02;;;;;;;4.72;4.40;;;;;;;;;;5072938;28;20212;-82
2022/07/24 13:46:29;;;;;;;5.00;4.57;;;;;;;;;;5073037;28;20252;-82
2022/07/24 13:48:55;;;;;;;4.90;4.60;;;;;;;;;;5070365;28;20260;-82
2022/07/24 13:51:21;;;;;;;5.25;4.75;;;;;;;;;;5069191;28;20203;-82
2022/07/24 13:53:48;;;;;;;5.82;4.20;;;;;;;;;;5078072;28;20245;-82
2022/07/24 13:56:14;;;;;;;5.07;4.65;;;;;;;;;;5063549;28;20186;-82
2022/07/24 13:58:41;;;;;;;5.07;4.60;;;;;;;;;;5065853;28;20184;-82
2022/07/24 14:01:08;;;;;;;4.75;4.35;;;;;;;;;;5066987;28;20284;-82
2022/07/24 14:03:36;;;;;;;4.93;4.55;;;;;;;;;;5074688;28;20300;-82
2022/07/24 14:06:03;;;;;;;4.88;4.47;;;;;;;;;;5062394;28;20190;-81
2022/07/24 14:08:29;;;;;;;5.55;5.00;;;;;;;;;;5062210;28;20284;-82
2022/07/24 14:10:55;;;;;;;4.70;4.40;;;;;;;;;;5066013;28;20189;-82
2022/07/24 14:13:21;;;;;;;4.88;4.38;;;;;;;;;;5068902;28;20239;-83
2022/07/24 14:15:48;;;;;;;4.72;4.32;;;;;;;;;;5066098;28;20196;-83
2022/07/24 14:18:14;;;;;;;4.30;4.00;;;;;;;;;;5059904;28;20723;-82
2022/07/24 14:20:40;;;;;;;4.47;4.07;;;;;;;;;;5064278;28;20635;-81
2022/07/24 14:23:06;;;;;;;4.35;4.05;;;;;;;;;;5068455;28;20213;-82
2022/07/24 14:25:33;;;;;;;4.70;4.30;;;;;;;;;;5076401;28;20181;-83
2022/07/24 14:27:59;;;;;;;4.90;4.22;;;;;;;;;;5070601;28;20198;-79
2022/07/24 14:30:25;;;;;;;4.15;3.85;;;;;;;;;;5062465;28;20258;-83
2022/07/24 14:32:51;;;;;;;4.80;4.28;;;;;;;;;;5048074;28;20209;-82
2022/07/24 14:35:17;;;;;;;4.15;3.85;;;;;;;;;;5065154;28;20268;-82
2022/07/24 14:37:44;;;;;;;4.85;4.45;;;;;;;;;;5062997;28;20181;-83
2022/07/24 14:40:10;;;;;;;3.97;3.67;;;;;;;;;;5061580;28;20199;-82
2022/07/24 14:42:36;;;;;;;4.25;3.95;;;;;;;;;;5075860;28;20292;-82
2022/07/24 14:45:03;;;;;;;4.25;3.95;;;;;;;;;;5064653;28;20186;-83